Time;durP1;ratioP1;P1;durP2;ratioP2;P2;SDS_P1;SDS_P2;PMS_P1;PMS_P2;Temp;Humidity;BMP_temperature;BMP_pressure;BME280_temperature;BME280_humidity;BME280_pressure;Samples;Min_cycle;Max_cycle;Signal;HPM_P1;HPM_P2
2021/06/12 00:00:41;;;;;;;18.13;16.30;;;17.60;99.90;;;;;;5080664;28;20956;-64
2021/06/12 00:03:08;;;;;;;17.93;16.23;;;17.50;99.90;;;;;;5091255;28;20442;-64
2021/06/12 00:05:35;;;;;;;17.00;15.40;;;17.40;99.90;;;;;;5088062;28;20541;-64
2021/06/12 00:08:03;;;;;;;18.03;16.30;;;17.40;99.90;;;;;;5082329;28;20468;-64
2021/06/12 00:10:33;;;;;;;19.77;17.67;;;17.30;99.90;;;;;;5086825;28;20431;-64
2021/06/12 00:13:00;;;;;;;19.73;17.60;;;17.20;99.90;;;;;;5084672;28;20910;-64
2021/06/12 00:15:28;;;;;;;17.80;16.20;;;17.10;99.90;;;;;;5088272;28;20470;-65
2021/06/12 00:17:54;;;;;;;17.40;15.70;;;17.10;99.90;;;;;;5090462;28;20434;-65
2021/06/12 00:20:25;;;;;;;16.63;15.10;;;17.10;99.90;;;;;;5090919;28;20531;-64
2021/06/12 00:22:52;;;;;;;19.20;17.47;;;17.00;99.90;;;;;;5090372;28;21014;-67
2021/06/12 00:25:22;;;;;;;20.13;18.10;;;17.00;99.90;;;;;;5082823;28;20513;-64
2021/06/12 00:27:49;;;;;;;18.87;17.20;;;16.90;99.90;;;;;;5090428;28;20430;-65
2021/06/12 00:30:16;;;;;;;18.77;17.07;;;16.80;99.90;;;;;;5083795;28;20466;-64
2021/06/12 00:32:43;;;;;;;18.43;16.73;;;16.70;99.90;;;;;;5083897;28;20446;-64
2021/06/12 00:35:12;;;;;;;19.70;17.93;;;16.60;99.90;;;;;;5090389;28;20454;-64
2021/06/12 00:37:39;;;;;;;17.80;16.20;;;16.60;99.90;;;;;;5090731;28;20446;-64
2021/06/12 00:40:07;;;;;;;18.23;16.43;;;16.50;99.90;;;;;;5088663;28;20466;-65
2021/06/12 00:42:37;;;;;;;18.97;17.00;;;16.50;99.90;;;;;;5090052;28;20478;-67
2021/06/12 00:45:05;;;;;;;20.10;18.30;;;16.40;99.90;;;;;;5090066;28;20481;-66
2021/06/12 00:47:32;;;;;;;19.90;17.80;;;16.50;99.90;;;;;;5087718;28;20507;-67
2021/06/12 00:49:58;;;;;;;20.23;18.17;;;16.40;99.90;;;;;;5078753;28;20456;-66
2021/06/12 00:52:24;;;;;;;19.50;17.70;;;16.30;99.90;;;;;;5090100;28;20660;-67
2021/06/12 00:54:51;;;;;;;19.17;17.47;;;16.30;99.90;;;;;;5089078;28;20546;-67
2021/06/12 00:57:17;;;;;;;20.53;18.70;;;16.30;99.90;;;;;;5083713;28;20533;-67
2021/06/12 00:59:45;;;;;;;20.80;18.90;;;16.20;99.90;;;;;;5089313;28;20446;-65
2021/06/12 01:02:12;;;;;;;21.23;19.23;;;16.30;99.90;;;;;;5083425;28;20565;-67
2021/06/12 01:04:38;;;;;;;21.50;19.50;;;16.30;99.90;;;;;;5089666;28;20515;-67
2021/06/12 01:07:05;;;;;;;20.33;18.53;;;16.40;99.90;;;;;;5084102;28;20442;-67
2021/06/12 01:09:31;;;;;;;19.77;17.77;;;16.30;99.90;;;;;;5079938;28;20526;-67
2021/06/12 01:12:08;;;;;;;20.50;18.53;;;16.30;99.90;;;;;;5080266;28;20432;-66
2021/06/12 01:14:40;;;;;;;22.83;20.83;;;16.30;99.90;;;;;;5079279;28;20462;-67
2021/06/12 01:17:15;;;;;;;21.33;19.23;;;16.20;99.90;;;;;;5078780;28;20889;-67
2021/06/12 01:20:17;;;;;;;20.90;19.00;;;16.10;99.90;;;;;;5081216;28;20450;-67
2021/06/12 01:23:06;;;;;;;22.47;20.27;;;16.10;99.90;;;;;;5078974;28;20516;-66
2021/06/12 01:25:50;;;;;;;24.23;21.83;;;16.10;99.90;;;;;;5078980;28;20539;-66
2021/06/12 01:28:34;;;;;;;20.93;18.93;;;16.00;99.90;;;;;;5078328;28;20441;-66
2021/06/12 01:31:02;;;;;;;21.30;19.40;;;16.00;99.90;;;;;;5084580;28;20533;-66
2021/06/12 01:33:29;;;;;;;24.00;21.80;;;16.10;99.90;;;;;;5090951;28;20438;-67
2021/06/12 01:36:01;;;;;;;22.60;20.63;;;15.90;99.90;;;;;;5091197;28;20444;-67
2021/06/12 01:38:30;;;;;;;21.20;19.40;;;16.00;99.90;;;;;;5091416;28;20537;-67
2021/06/12 01:41:01;;;;;;;21.47;19.50;;;16.00;99.90;;;;;;5090983;28;20521;-67
2021/06/12 01:43:29;;;;;;;22.30;19.90;;;15.90;99.90;;;;;;5090870;28;20446;-67
2021/06/12 01:45:56;;;;;;;21.00;19.10;;;15.90;99.90;;;;;;5090465;28;20449;-67
2021/06/12 01:48:24;;;;;;;24.30;22.00;;;15.80;99.90;;;;;;5090318;28;20453;-67
2021/06/12 01:50:51;;;;;;;23.97;21.77;;;15.80;99.90;;;;;;5090515;28;20483;-67
2021/06/12 01:53:20;;;;;;;23.70;21.50;;;15.90;99.90;;;;;;5090659;28;20449;-67
2021/06/12 01:55:48;;;;;;;23.50;21.27;;;15.90;99.90;;;;;;5090423;28;21013;-67
2021/06/12 01:58:18;;;;;;;23.27;21.13;;;15.90;99.90;;;;;;5090986;28;20533;-67
2021/06/12 02:00:45;;;;;;;23.87;21.77;;;15.90;99.90;;;;;;5090691;28;20873;-67
2021/06/12 02:03:12;;;;;;;24.07;21.97;;;16.00;99.90;;;;;;5090676;28;20487;-67
2021/06/12 02:05:42;;;;;;;23.50;21.23;;;16.00;99.90;;;;;;5090690;28;20458;-68
2021/06/12 02:08:10;;;;;;;24.03;21.67;;;16.10;99.90;;;;;;5090785;28;20446;-67
2021/06/12 02:10:37;;;;;;;24.03;21.60;;;16.10;99.90;;;;;;5090699;28;20721;-67
2021/06/12 02:13:04;;;;;;;22.63;20.50;;;16.10;99.90;;;;;;5090618;28;20798;-67
2021/06/12 02:15:31;;;;;;;23.60;21.40;;;16.10;99.90;;;;;;5090591;28;20482;-67
2021/06/12 02:18:00;;;;;;;23.63;21.17;;;16.10;99.90;;;;;;5090521;28;20943;-67
2021/06/12 02:20:28;;;;;;;23.17;20.77;;;15.90;99.90;;;;;;5090345;28;20438;-67
2021/06/12 02:22:56;;;;;;;23.90;21.60;;;15.80;99.90;;;;;;5090687;28;20482;-67
2021/06/12 02:25:24;;;;;;;23.90;21.53;;;15.80;99.90;;;;;;5090283;28;20551;-67
2021/06/12 02:27:54;;;;;;;22.43;20.23;;;15.80;99.90;;;;;;5090573;28;20454;-67
2021/06/12 02:30:24;;;;;;;25.80;23.40;;;15.70;99.90;;;;;;5089793;28;20446;-66
2021/06/12 02:32:54;;;;;;;26.23;23.57;;;15.70;99.90;;;;;;5090139;28;20434;-67
2021/06/12 02:35:21;;;;;;;25.30;22.97;;;15.70;99.90;;;;;;5090199;28;20985;-67
2021/06/12 02:37:48;;;;;;;25.20;22.67;;;15.60;99.90;;;;;;5090103;28;21189;-66
2021/06/12 02:40:16;;;;;;;24.60;21.97;;;15.60;99.90;;;;;;5089917;28;20915;-66
2021/06/12 02:42:43;;;;;;;25.20;22.83;;;15.60;99.90;;;;;;5090110;28;20478;-66
2021/06/12 02:45:12;;;;;;;25.30;22.90;;;15.60;99.90;;;;;;5089890;28;20895;-66
2021/06/12 02:47:43;;;;;;;24.90;22.60;;;15.50;99.90;;;;;;5093148;28;20454;-66
2021/06/12 02:50:11;;;;;;;26.03;23.50;;;15.50;99.90;;;;;;5096564;28;20450;-66
2021/06/12 02:52:40;;;;;;;23.03;21.03;;;15.60;99.90;;;;;;5096987;28;20516;-66
2021/06/12 02:55:09;;;;;;;24.47;22.17;;;15.70;99.90;;;;;;5097018;28;20470;-66
2021/06/12 02:57:37;;;;;;;25.33;22.93;;;15.80;99.90;;;;;;5096726;28;20448;-67
2021/06/12 03:00:06;;;;;;;23.70;21.40;;;15.70;99.90;;;;;;5096504;28;20915;-68
2021/06/12 03:02:35;;;;;;;24.47;22.07;;;15.70;99.90;;;;;;5096853;28;20488;-67
2021/06/12 03:05:03;;;;;;;24.27;21.90;;;15.60;99.90;;;;;;5096506;28;20891;-66
2021/06/12 03:07:30;;;;;;;23.83;21.60;;;15.60;99.90;;;;;;5096558;28;20536;-67
2021/06/12 03:09:57;;;;;;;25.57;23.03;;;15.50;99.90;;;;;;5096381;28;20435;-66
2021/06/12 03:12:24;;;;;;;23.13;20.90;;;15.50;99.90;;;;;;5096496;28;20933;-67
2021/06/12 03:14:52;;;;;;;24.90;22.60;;;15.40;99.90;;;;;;5096729;28;20458;-67
2021/06/12 03:17:19;;;;;;;24.03;21.83;;;15.30;99.90;;;;;;5096760;28;20810;-66
2021/06/12 03:19:47;;;;;;;24.23;21.93;;;15.20;99.90;;;;;;5096379;28;20446;-66
2021/06/12 03:22:15;;;;;;;25.60;23.30;;;15.20;99.90;;;;;;5096495;28;20482;-66
2021/06/12 03:24:42;;;;;;;24.93;22.50;;;15.10;99.90;;;;;;5096383;28;20466;-67
2021/06/12 03:27:09;;;;;;;25.83;23.43;;;15.10;99.90;;;;;;5096647;28;20525;-67
2021/06/12 03:29:36;;;;;;;25.60;23.20;;;15.10;99.90;;;;;;5096339;28;20998;-66
2021/06/12 03:32:04;;;;;;;26.20;23.60;;;15.10;99.90;;;;;;5096757;28;20463;-67
2021/06/12 03:34:31;;;;;;;26.77;24.17;;;15.00;99.90;;;;;;5096284;28;20545;-66
2021/06/12 03:36:58;;;;;;;27.60;24.90;;;15.00;99.90;;;;;;5096501;28;20544;-66
2021/06/12 03:39:25;;;;;;;29.53;26.83;;;15.00;99.90;;;;;;5096272;28;20446;-66
2021/06/12 03:41:52;;;;;;;29.40;26.60;;;15.00;99.90;;;;;;5096521;28;20624;-67
2021/06/12 03:44:20;;;;;;;29.73;26.73;;;15.00;99.90;;;;;;5096281;28;20474;-67
2021/06/12 03:46:49;;;;;;;28.70;26.00;;;15.10;99.90;;;;;;5096567;28;20448;-67
2021/06/12 03:49:18;;;;;;;26.40;23.90;;;15.20;99.90;;;;;;5096137;28;20442;-66
2021/06/12 03:51:46;;;;;;;27.10;24.70;;;15.20;99.90;;;;;;5096380;28;20490;-67
2021/06/12 03:54:13;;;;;;;26.77;24.17;;;15.20;99.90;;;;;;5096229;28;20473;-67
2021/06/12 03:56:41;;;;;;;25.27;22.77;;;15.30;99.90;;;;;;5096054;28;20951;-66
2021/06/12 03:59:09;;;;;;;26.30;23.97;;;15.30;99.90;;;;;;5094748;28;20523;-66
2021/06/12 04:01:35;;;;;;;25.73;23.13;;;15.40;99.90;;;;;;5092813;28;20513;-67
2021/06/12 04:04:02;;;;;;;29.03;26.20;;;15.40;99.90;;;;;;5092801;28;20493;-66
2021/06/12 04:06:30;;;;;;;28.37;25.67;;;15.40;99.90;;;;;;5093002;28;20499;-67
2021/06/12 04:08:56;;;;;;;24.37;22.27;;;15.50;99.90;;;;;;5092833;28;20989;-65
2021/06/12 04:11:22;;;;;;;26.37;23.90;;;15.50;99.90;;;;;;5092662;28;20950;-66
2021/06/12 04:13:49;;;;;;;25.67;23.17;;;15.60;99.90;;;;;;5092532;28;21005;-67
2021/06/12 04:16:15;;;;;;;25.47;23.10;;;15.60;99.90;;;;;;5092700;28;20499;-67
2021/06/12 04:18:41;;;;;;;25.57;23.20;;;15.60;99.90;;;;;;5092895;28;20446;-67
2021/06/12 04:21:08;;;;;;;22.43;20.33;;;15.70;99.90;;;;;;5092028;28;20449;-67
2021/06/12 04:23:35;;;;;;;24.33;22.13;;;15.80;99.90;;;;;;5092501;28;20450;-67
2021/06/12 04:26:02;;;;;;;23.90;21.60;;;15.80;99.90;;;;;;5092392;28;20564;-67
2021/06/12 04:28:28;;;;;;;21.63;19.73;;;15.90;99.90;;;;;;5092898;28;20442;-67
2021/06/12 04:30:55;;;;;;;23.03;21.00;;;16.00;99.90;;;;;;5092320;28;20509;-67
2021/06/12 04:33:21;;;;;;;20.77;18.83;;;16.20;99.90;;;;;;5092667;28;20442;-67
2021/06/12 04:35:48;;;;;;;20.27;18.47;;;16.40;99.90;;;;;;5092194;28;20456;-67
2021/06/12 04:38:14;;;;;;;20.30;18.50;;;16.50;99.90;;;;;;5092630;28;20863;-67
2021/06/12 04:40:42;;;;;;;21.27;19.03;;;16.60;99.90;;;;;;5092487;28;20832;-67
2021/06/12 04:43:11;;;;;;;20.77;18.67;;;16.70;99.90;;;;;;5092499;28;20486;-67
2021/06/12 04:45:38;;;;;;;21.70;19.63;;;16.80;99.90;;;;;;5092483;28;20486;-67
2021/06/12 04:48:06;;;;;;;19.70;18.00;;;16.90;99.90;;;;;;5092465;28;20442;-67
2021/06/12 04:50:35;;;;;;;21.00;18.70;;;17.00;99.90;;;;;;5091717;28;20444;-67
2021/06/12 04:53:02;;;;;;;20.27;18.47;;;17.00;99.90;;;;;;5091977;28;20454;-67
2021/06/12 04:55:28;;;;;;;19.63;17.80;;;17.10;99.90;;;;;;5092112;28;20480;-67
2021/06/12 04:57:56;;;;;;;18.30;16.70;;;17.10;99.90;;;;;;5091935;28;20880;-67
2021/06/12 05:00:24;;;;;;;18.40;16.67;;;17.20;99.90;;;;;;5091832;28;20460;-67
2021/06/12 05:02:50;;;;;;;18.37;16.77;;;17.20;99.90;;;;;;5091329;28;20478;-67
2021/06/12 05:05:16;;;;;;;17.97;16.30;;;17.30;99.90;;;;;;5091902;28;20461;-67
2021/06/12 05:07:43;;;;;;;17.50;15.70;;;17.40;99.90;;;;;;5092069;28;20464;-67
2021/06/12 05:10:10;;;;;;;18.00;16.40;;;17.40;99.90;;;;;;5090979;28;20475;-68
2021/06/12 05:12:38;;;;;;;18.50;16.97;;;17.50;99.90;;;;;;5091376;28;21059;-68
2021/06/12 05:15:07;;;;;;;19.70;17.93;;;17.60;99.90;;;;;;5091589;28;20473;-67
2021/06/12 05:17:34;;;;;;;18.53;16.73;;;17.70;99.90;;;;;;5091346;28;21038;-67
2021/06/12 05:20:00;;;;;;;20.07;18.33;;;17.80;99.90;;;;;;5090991;28;20546;-67
2021/06/12 05:22:28;;;;;;;16.63;15.20;;;17.90;99.90;;;;;;5091392;28;20478;-67
2021/06/12 05:24:56;;;;;;;17.30;15.60;;;18.00;99.90;;;;;;5091409;28;20838;-67
2021/06/12 05:27:22;;;;;;;17.10;15.70;;;18.10;99.90;;;;;;5091304;28;20446;-67
2021/06/12 05:29:49;;;;;;;18.23;15.63;;;18.30;99.90;;;;;;5090499;28;20454;-67
2021/06/12 05:32:17;;;;;;;17.00;15.47;;;18.50;99.90;;;;;;5091195;28;20525;-67
2021/06/12 05:34:43;;;;;;;15.30;14.00;;;18.70;99.90;;;;;;5090903;28;20842;-68
2021/06/12 05:37:10;;;;;;;16.57;14.87;;;18.70;99.90;;;;;;5091266;28;20538;-65
2021/06/12 05:39:37;;;;;;;16.47;14.63;;;18.90;99.90;;;;;;5090937;28;20438;-67
2021/06/12 05:42:04;;;;;;;14.97;13.67;;;19.00;99.90;;;;;;5090902;28;20572;-67
2021/06/12 05:44:30;;;;;;;14.23;13.03;;;19.10;99.90;;;;;;5090716;28;20569;-66
2021/06/12 05:46:57;;;;;;;14.90;13.50;;;19.20;99.90;;;;;;5090877;28;20528;-65
2021/06/12 05:49:24;;;;;;;14.97;13.67;;;19.20;99.90;;;;;;5090754;28;20455;-66
2021/06/12 05:51:51;;;;;;;13.90;12.70;;;19.30;99.90;;;;;;5090921;28;20494;-66
2021/06/12 05:54:17;;;;;;;15.97;14.47;;;19.40;99.90;;;;;;5091018;28;20573;-66
2021/06/12 05:56:43;;;;;;;14.70;13.20;;;19.50;99.90;;;;;;5090801;28;21018;-66
2021/06/12 05:59:10;;;;;;;14.53;13.33;;;19.60;99.90;;;;;;5090570;28;20827;-66
2021/06/12 06:01:36;;;;;;;13.67;12.00;;;19.60;99.90;;;;;;5090796;28;20474;-66
2021/06/12 06:04:02;;;;;;;12.77;11.67;;;19.70;99.90;;;;;;5090635;28;20519;-66
2021/06/12 06:06:30;;;;;;;13.07;11.90;;;19.80;99.90;;;;;;5090606;28;20452;-66
2021/06/12 06:08:56;;;;;;;13.77;12.60;;;19.80;99.90;;;;;;5090108;28;20446;-65
2021/06/12 06:11:23;;;;;;;15.53;13.93;;;20.00;99.90;;;;;;5090225;28;20449;-66
2021/06/12 06:13:49;;;;;;;13.07;11.77;;;20.10;99.90;;;;;;5090431;28;20494;-65
2021/06/12 06:16:15;;;;;;;14.83;13.63;;;20.20;99.90;;;;;;5090653;28;20442;-66
2021/06/12 06:18:42;;;;;;;14.67;13.23;;;20.20;99.90;;;;;;5090392;28;20438;-66
2021/06/12 06:21:10;;;;;;;13.50;12.40;;;20.20;99.90;;;;;;5089794;28;21030;-66
2021/06/12 06:23:37;;;;;;;14.10;12.90;;;20.20;99.90;;;;;;5089060;28;20481;-66
2021/06/12 06:26:04;;;;;;;15.40;13.40;;;20.20;99.90;;;;;;5090094;28;20594;-66
2021/06/12 06:28:31;;;;;;;14.53;13.23;;;20.20;99.90;;;;;;5090041;28;20812;-67
2021/06/12 06:30:57;;;;;;;14.57;13.20;;;20.30;99.90;;;;;;5089523;28;20482;-66
2021/06/12 06:33:25;;;;;;;13.93;12.73;;;20.30;99.90;;;;;;5089851;28;20442;-66
2021/06/12 06:35:52;;;;;;;13.97;12.57;;;20.40;99.90;;;;;;5090023;28;20446;-66
2021/06/12 06:38:18;;;;;;;14.50;13.10;;;20.40;99.90;;;;;;5090305;28;20786;-65
2021/06/12 06:40:47;;;;;;;14.30;13.03;;;20.40;99.90;;;;;;5089685;28;20442;-66
2021/06/12 06:43:13;;;;;;;14.77;13.50;;;20.50;99.90;;;;;;5090165;28;21020;-66
2021/06/12 06:45:40;;;;;;;14.23;12.83;;;20.60;99.90;;;;;;5089728;28;21056;-66
2021/06/12 06:48:08;;;;;;;12.97;11.77;;;20.70;99.90;;;;;;5090170;28;20438;-66
2021/06/12 06:50:35;;;;;;;14.70;12.87;;;20.80;99.90;;;;;;5089676;28;20454;-66
2021/06/12 06:53:02;;;;;;;12.90;11.77;;;20.90;99.90;;;;;;5089120;28;20445;-66
2021/06/12 06:55:28;;;;;;;14.57;13.03;;;21.00;99.90;;;;;;5087897;28;20470;-66
2021/06/12 06:57:56;;;;;;;13.73;12.43;;;21.30;99.90;;;;;;5079987;28;20451;-66
2021/06/12 07:00:25;;;;;;;14.23;12.80;;;21.40;99.90;;;;;;5076549;28;20501;-66
2021/06/12 07:02:52;;;;;;;13.97;12.77;;;21.60;99.90;;;;;;5082153;28;20493;-66
2021/06/12 07:05:18;;;;;;;12.77;11.53;;;21.70;99.90;;;;;;5070687;28;20528;-66
2021/06/12 07:07:45;;;;;;;12.87;11.80;;;21.80;99.90;;;;;;5072595;28;20450;-67
2021/06/12 07:10:12;;;;;;;13.20;12.00;;;21.70;99.90;;;;;;5069724;28;20500;-67
2021/06/12 07:12:39;;;;;;;12.20;11.30;;;21.80;99.90;;;;;;5069410;28;20446;-66
2021/06/12 07:15:09;;;;;;;11.50;10.43;;;21.90;99.90;;;;;;5071368;28;20487;-67
2021/06/12 07:17:35;;;;;;;12.40;11.20;;;22.10;99.90;;;;;;5079026;28;20474;-68
2021/06/12 07:20:03;;;;;;;12.80;11.60;;;22.40;99.90;;;;;;5069477;28;20450;-68
2021/06/12 07:22:29;;;;;;;12.97;11.77;;;22.50;99.90;;;;;;5069234;28;20860;-68
2021/06/12 07:24:56;;;;;;;13.10;11.80;;;22.50;99.90;;;;;;5077881;28;21227;-67
2021/06/12 07:27:22;;;;;;;14.23;12.33;;;22.60;99.90;;;;;;5070647;28;20520;-69
2021/06/12 07:29:49;;;;;;;13.10;11.60;;;22.60;99.90;;;;;;5069530;28;20455;-67
2021/06/12 07:32:17;;;;;;;12.63;11.40;;;22.70;99.90;;;;;;5069975;28;20450;-67
2021/06/12 07:34:43;;;;;;;14.27;13.07;;;22.80;99.90;;;;;;5071659;28;20524;-68
2021/06/12 07:37:10;;;;;;;13.90;12.50;;;23.00;99.90;;;;;;5072811;28;20435;-68
2021/06/12 07:39:36;;;;;;;13.87;12.60;;;23.00;99.90;;;;;;5072614;28;20447;-68
2021/06/12 07:42:03;;;;;;;11.87;10.77;;;23.10;99.90;;;;;;5072434;28;20481;-68
2021/06/12 07:44:30;;;;;;;12.70;11.57;;;23.50;99.90;;;;;;5072717;28;20493;-67
2021/06/12 07:46:56;;;;;;;10.70;9.80;;;24.00;99.90;;;;;;5074449;28;20473;-68
2021/06/12 07:49:24;;;;;;;10.47;9.67;;;24.40;99.90;;;;;;5092526;28;20488;-68
2021/06/12 07:51:51;;;;;;;11.20;10.20;;;24.60;99.90;;;;;;5092981;28;20456;-68
2021/06/12 07:54:18;;;;;;;10.90;9.87;;;24.80;99.90;;;;;;5092811;28;20458;-67
2021/06/12 07:56:45;;;;;;;11.43;9.00;;;24.90;99.90;;;;;;5092728;28;20453;-67
2021/06/12 07:59:12;;;;;;;10.50;9.50;;;25.20;99.90;;;;;;5092732;28;20506;-68
2021/06/12 08:01:38;;;;;;;11.70;10.50;;;25.20;99.90;;;;;;5092090;28;20435;-67
2021/06/12 08:04:05;;;;;;;10.47;9.13;;;25.20;99.90;;;;;;5087161;28;20247;-67
2021/06/12 08:06:33;;;;;;;10.57;9.57;;;25.40;99.90;;;;;;5073775;28;20797;-69
2021/06/12 08:08:59;;;;;;;10.70;9.70;;;25.40;99.90;;;;;;5071763;28;20439;-67
2021/06/12 08:11:26;;;;;;;11.50;10.50;;;25.50;99.90;;;;;;5072240;28;20474;-67
2021/06/12 08:13:52;;;;;;;11.73;10.73;;;25.80;99.90;;;;;;5071962;28;20463;-67
2021/06/12 08:16:19;;;;;;;12.33;11.20;;;25.60;99.90;;;;;;5072399;28;22205;-66
2021/06/12 08:18:45;;;;;;;12.13;10.60;;;25.50;99.90;;;;;;5076018;28;20439;-67
2021/06/12 08:21:11;;;;;;;11.80;10.70;;;25.60;99.90;;;;;;5077972;28;20492;-66
2021/06/12 08:23:40;;;;;;;10.90;9.90;;;25.50;99.90;;;;;;5088626;28;20492;-66
2021/06/12 08:26:06;;;;;;;10.40;9.60;;;25.70;99.90;;;;;;5078914;28;20451;-67
2021/06/12 08:28:33;;;;;;;9.63;8.67;;;25.70;99.90;;;;;;5073526;28;20439;-67
2021/06/12 08:31:00;;;;;;;11.63;9.97;;;25.70;99.90;;;;;;5071815;28;20448;-67
2021/06/12 08:33:26;;;;;;;10.50;9.70;;;25.70;99.90;;;;;;5072734;28;20778;-65
2021/06/12 08:35:53;;;;;;;13.70;12.60;;;25.80;99.90;;;;;;5072324;28;20454;-68
2021/06/12 08:38:19;;;;;;;13.03;11.77;;;25.50;99.90;;;;;;5072352;28;20435;-68
2021/06/12 08:40:48;;;;;;;11.47;10.50;;;25.30;99.90;;;;;;5071659;28;20456;-68
2021/06/12 08:43:20;;;;;;;11.33;9.40;;;25.30;99.90;;;;;;5075880;28;20496;-68
2021/06/12 08:45:47;;;;;;;9.63;8.73;;;25.40;99.90;;;;;;5073583;28;21737;-68
2021/06/12 08:48:14;;;;;;;9.20;8.40;;;25.70;99.90;;;;;;5087919;28;20465;-70
2021/06/12 08:50:41;;;;;;;22.47;7.90;;;25.80;99.90;;;;;;5090873;28;20488;-70
2021/06/12 08:53:08;;;;;;;9.10;7.23;;;25.70;99.90;;;;;;5091506;28;20445;-68
2021/06/12 08:55:34;;;;;;;9.10;8.30;;;25.80;99.90;;;;;;5090789;28;20467;-67
2021/06/12 08:58:02;;;;;;;7.83;7.23;;;25.70;99.90;;;;;;5079054;28;20977;-67
2021/06/12 09:00:29;;;;;;;8.20;7.40;;;25.60;99.90;;;;;;5070629;28;20458;-72
2021/06/12 09:03:13;;;;;;;6.97;6.37;;;25.50;99.90;;;;;;5077532;28;20482;-68
2021/06/12 09:05:48;;;;;;;6.97;6.10;;;25.40;99.90;;;;;;5080186;28;20539;-68
2021/06/12 09:08:16;;;;;;;7.60;5.80;;;25.30;99.90;;;;;;5077427;28;20475;-67
2021/06/12 09:10:48;;;;;;;5.93;5.30;;;25.50;99.90;;;;;;5079291;28;20458;-68
2021/06/12 09:13:16;;;;;;;6.70;5.70;;;25.60;99.90;;;;;;5071291;28;20462;-67
2021/06/12 09:15:51;;;;;;;5.83;5.23;;;25.60;99.90;;;;;;5072677;28;20529;-67
2021/06/12 09:18:39;;;;;;;6.47;4.80;;;25.60;99.90;;;;;;5077397;28;20474;-69
2021/06/12 09:21:07;;;;;;;4.80;4.40;;;25.80;99.90;;;;;;5084150;28;20435;-68
2021/06/12 09:23:39;;;;;;;4.90;4.50;;;25.90;99.90;;;;;;5071212;28;20483;-67
2021/06/12 09:26:07;;;;;;;6.27;4.80;;;26.10;99.90;;;;;;5075127;28;20441;-66
2021/06/12 09:28:52;;;;;;;6.20;4.50;;;26.10;99.90;;;;;;5075871;28;20444;-67
2021/06/12 09:31:22;;;;;;;4.83;4.40;;;26.20;99.90;;;;;;5070852;28;20454;-67
2021/06/12 09:33:49;;;;;;;6.73;5.10;;;26.40;99.90;;;;;;5076251;28;20458;-65
2021/06/12 09:36:16;;;;;;;6.07;4.77;;;26.30;99.90;;;;;;5072021;28;20431;-67
2021/06/12 09:38:43;;;;;;;5.47;4.37;;;26.20;99.90;;;;;;5078087;28;20469;-72
2021/06/12 09:41:27;;;;;;;7.97;4.77;;;26.30;99.90;;;;;;5086332;28;20450;-68
2021/06/12 09:43:56;;;;;;;7.10;4.63;;;26.30;99.90;;;;;;5077415;28;20486;-67
2021/06/12 09:46:41;;;;;;;4.70;4.20;;;26.30;99.90;;;;;;5070843;28;20936;-67
2021/06/12 09:49:09;;;;;;;5.70;4.20;;;26.40;99.90;;;;;;5070785;28;20986;-67
2021/06/12 09:51:37;;;;;;;5.73;4.77;;;26.50;99.90;;;;;;5081324;28;20478;-67
2021/06/12 09:54:05;;;;;;;6.20;5.10;;;26.70;99.90;;;;;;5070805;28;20463;-67
2021/06/12 09:56:33;;;;;;;5.07;4.67;;;26.70;99.90;;;;;;5075530;28;20454;-67
2021/06/12 09:59:17;;;;;;;10.17;5.80;;;26.60;99.90;;;;;;5072262;28;20450;-69
2021/06/12 10:01:50;;;;;;;5.70;4.50;;;26.40;99.90;;;;;;5068846;28;20530;-67
2021/06/12 10:04:17;;;;;;;5.27;4.20;;;26.50;99.90;;;;;;5083026;28;20471;-67
2021/06/12 10:06:44;;;;;;;8.83;4.67;;;26.90;99.90;;;;;;5071371;28;20572;-67
2021/06/12 10:09:10;;;;;;;6.23;4.83;;;27.40;99.90;;;;;;5069471;28;20875;-67
2021/06/12 10:11:37;;;;;;;4.87;4.30;;;28.00;99.90;;;;;;5073538;28;20451;-67
2021/06/12 10:14:06;;;;;;;5.80;4.70;;;28.00;99.90;;;;;;5070002;28;20862;-68
2021/06/12 10:16:38;;;;;;;5.40;4.10;;;28.20;99.90;;;;;;5069684;28;20530;-68
2021/06/12 10:19:07;;;;;;;5.10;4.40;;;28.50;99.90;;;;;;5069767;28;20516;-69
2021/06/12 10:21:33;;;;;;;4.40;3.87;;;28.80;99.90;;;;;;5069574;28;20455;-68
2021/06/12 10:24:05;;;;;;;6.33;4.40;;;28.70;99.90;;;;;;5075915;28;20486;-68
2021/06/12 10:26:32;;;;;;;4.70;3.80;;;28.90;99.90;;;;;;5071110;28;20933;-67
2021/06/12 10:28:58;;;;;;;5.90;4.00;;;29.30;99.90;;;;;;5069781;28;20455;-67
2021/06/12 10:31:27;;;;;;;4.80;4.30;;;29.20;99.90;;;;;;5069731;28;20443;-68
2021/06/12 10:33:56;;;;;;;5.63;3.37;;;29.20;99.90;;;;;;5069903;28;20471;-68
2021/06/12 10:36:24;;;;;;;6.47;3.87;;;29.00;99.90;;;;;;5069832;28;20954;-68
2021/06/12 10:38:51;;;;;;;4.60;3.90;;;29.00;97.80;;;;;;5069926;28;20451;-67
2021/06/12 10:41:20;;;;;;;4.90;4.23;;;28.50;99.90;;;;;;5069361;28;20454;-68
2021/06/12 10:43:48;;;;;;;5.70;3.97;;;28.70;99.90;;;;;;5069181;28;20491;-67
2021/06/12 10:46:20;;;;;;;5.07;4.50;;;28.90;98.40;;;;;;5074869;28;20453;-67
2021/06/12 10:48:52;;;;;;;7.87;3.93;;;28.80;98.60;;;;;;5071912;28;20522;-66
2021/06/12 10:51:43;;;;;;;5.87;4.23;;;29.00;98.10;;;;;;5077191;28;20455;-68
2021/06/12 10:54:20;;;;;;;5.33;4.20;;;28.80;97.50;;;;;;5081814;28;20529;-66
2021/06/12 10:56:48;;;;;;;4.80;4.27;;;28.80;97.80;;;;;;5089625;28;20844;-67
2021/06/12 10:59:42;;;;;;;5.40;4.53;;;28.80;99.80;;;;;;5089492;28;20443;-67
2021/06/12 11:02:12;;;;;;;5.23;4.37;;;29.00;99.30;;;;;;5089731;28;20446;-67
2021/06/12 11:04:50;;;;;;;6.43;4.10;;;28.90;98.30;;;;;;5089690;28;20520;-68
2021/06/12 11:07:32;;;;;;;4.57;3.93;;;28.90;98.10;;;;;;5089624;28;20431;-67
2021/06/12 11:10:23;;;;;;;3.90;3.47;;;29.10;99.00;;;;;;5082478;28;20488;-67
2021/06/12 11:12:51;;;;;;;5.03;4.53;;;29.50;98.40;;;;;;5084046;28;20835;-68
2021/06/12 11:15:29;;;;;;;4.33;3.93;;;29.30;97.50;;;;;;5083893;28;20505;-68
2021/06/12 11:18:17;;;;;;;5.47;4.13;;;29.40;96.50;;;;;;5082340;28;20518;-69
2021/06/12 11:20:47;;;;;;;5.77;3.80;;;29.40;98.20;;;;;;5082674;28;20443;-69
2021/06/12 11:23:16;;;;;;;4.70;4.30;;;29.40;97.10;;;;;;5082143;28;20478;-68
2021/06/12 11:25:49;;;;;;;4.60;2.93;;;29.70;97.50;;;;;;5084643;28;20480;-67
2021/06/12 11:28:30;;;;;;;4.00;3.10;;;29.60;94.80;;;;;;5081984;28;20439;-68
2021/06/12 11:31:26;;;;;;;5.33;2.67;;;29.60;93.30;;;;;;5073307;28;20474;-68
2021/06/12 11:34:12;;;;;;;4.90;3.10;;;29.20;91.40;;;;;;5073063;28;20990;-69
2021/06/12 11:36:40;;;;;;;5.30;3.80;;;28.60;93.80;;;;;;5073020;28;20446;-68
2021/06/12 11:39:07;;;;;;;3.93;3.07;;;28.40;94.40;;;;;;5072656;28;20546;-69
2021/06/12 11:41:33;;;;;;;6.47;4.13;;;28.60;95.60;;;;;;5072701;28;20568;-66
2021/06/12 11:44:01;;;;;;;5.20;4.03;;;29.20;95.70;;;;;;5072556;28;21013;-67
2021/06/12 11:46:33;;;;;;;4.03;3.67;;;29.40;96.00;;;;;;5076950;28;20504;-67
2021/06/12 11:49:00;;;;;;;4.10;2.97;;;29.00;95.40;;;;;;5073677;28;20439;-66
2021/06/12 11:51:31;;;;;;;5.63;3.10;;;28.70;94.50;;;;;;5072612;28;20482;-67
2021/06/12 11:54:09;;;;;;;4.67;3.47;;;28.50;94.40;;;;;;5084012;28;20551;-68
2021/06/12 11:56:37;;;;;;;4.93;3.70;;;28.70;96.20;;;;;;5083876;28;21009;-68
2021/06/12 11:59:05;;;;;;;5.00;2.87;;;29.10;95.50;;;;;;5081074;28;20439;-66
2021/06/12 12:01:44;;;;;;;3.60;3.23;;;29.20;93.20;;;;;;5081362;28;20538;-68
2021/06/12 12:04:13;;;;;;;6.43;3.70;;;28.90;95.90;;;;;;5082469;28;20483;-67
2021/06/12 12:06:45;;;;;;;5.17;3.57;;;28.90;95.90;;;;;;5081232;28;20466;-68
2021/06/12 12:09:22;;;;;;;3.67;3.10;;;29.00;95.60;;;;;;5086291;28;20435;-67
2021/06/12 12:11:50;;;;;;;3.30;2.87;;;29.00;94.40;;;;;;5082639;28;20453;-68
2021/06/12 12:14:17;;;;;;;4.80;2.33;;;29.20;93.30;;;;;;5081242;28;20565;-68
2021/06/12 12:16:45;;;;;;;2.93;2.47;;;29.30;94.00;;;;;;5082530;28;21015;-67
2021/06/12 12:19:12;;;;;;;5.23;2.90;;;28.70;93.50;;;;;;5082565;28;20439;-68
2021/06/12 12:21:39;;;;;;;4.03;2.67;;;28.30;94.00;;;;;;5079943;28;20439;-67
2021/06/12 12:24:08;;;;;;;3.57;2.73;;;28.30;94.30;;;;;;5082281;28;20569;-68
2021/06/12 12:26:36;;;;;;;2.80;2.47;;;28.30;94.80;;;;;;5083200;28;20495;-67
2021/06/12 12:29:08;;;;;;;4.30;2.43;;;28.60;95.40;;;;;;5081665;28;20515;-67
2021/06/12 12:31:41;;;;;;;5.60;3.20;;;29.00;94.30;;;;;;5080583;28;20451;-66
2021/06/12 12:34:08;;;;;;;4.80;2.90;;;29.80;93.80;;;;;;5081382;28;20845;-67
2021/06/12 12:36:42;;;;;;;4.43;3.00;;;30.00;92.20;;;;;;5082453;28;20452;-67
2021/06/12 12:39:09;;;;;;;4.23;2.63;;;30.00;91.50;;;;;;5074468;28;20443;-67
2021/06/12 12:41:38;;;;;;;4.37;2.60;;;29.90;91.80;;;;;;5071747;28;20505;-67